Lower Ranchito, New Mexico
Current Conditions -  °F | °C
As of 1:15 PM on Thursday 23 Oct 2014 (Local Time) from KSKX Reporting Station
Clear Clear  
Wind Chill: 66°   Ceiling: Unl
Heat Index: 66°   Visibility: 10mi
Dew Point: 28°   Wind: 10mph
Humidity: 24%   Direction: 330°NNW
Pressure: 30.32"   Gusts: NA
Location:  36.6959°N, 106.135°W
Report Text: KSKX 231915Z AUTO 33009KT 10SM CLR 19/M02 A3032 RMK AO1
Loading
Personal Weather Stations






























Interactive Weather Map
Tropical Storm Tracking
New forecast layout! Learn more

10-Day Weather Forecast

Advertisements
Track Severe Weather on mobile